createdAt,value
2018-06-30T00:01:40.442Z,8.17
2018-06-30T00:04:15.456Z,8.13
2018-06-30T00:06:50.420Z,7.73
2018-06-30T00:09:25.588Z,8.50
2018-06-30T00:12:00.508Z,8.23
2018-06-30T00:14:35.608Z,8.00
2018-06-30T00:17:10.961Z,8.43
2018-06-30T00:19:45.874Z,8.70
2018-06-30T00:22:21.016Z,8.47
2018-06-30T00:24:55.965Z,8.30
2018-06-30T00:27:31.589Z,8.53
2018-06-30T00:30:06.696Z,8.27
2018-06-30T00:32:41.631Z,8.47
2018-06-30T00:35:16.695Z,8.90
2018-06-30T00:37:51.655Z,8.50
2018-06-30T00:40:26.720Z,8.67
2018-06-30T00:43:01.648Z,8.73
2018-06-30T00:45:36.616Z,8.30
2018-06-30T00:48:11.564Z,7.83
2018-06-30T00:50:46.675Z,8.40
2018-06-30T00:53:21.793Z,8.77
2018-06-30T00:55:56.915Z,8.77
2018-06-30T00:58:31.946Z,8.20
2018-06-30T01:01:07.068Z,7.93
2018-06-30T01:03:42.132Z,8.87
2018-06-30T01:06:17.295Z,8.77
2018-06-30T01:08:53.151Z,8.43
2018-06-30T01:11:28.279Z,9.00
2018-06-30T01:14:03.725Z,8.90
2018-06-30T01:16:38.948Z,8.40
2018-06-30T01:19:13.961Z,8.77
2018-06-30T01:21:49.052Z,8.63
2018-06-30T01:24:24.159Z,8.50
2018-06-30T01:26:59.272Z,8.70
2018-06-30T01:29:34.248Z,8.40
2018-06-30T01:32:09.334Z,8.37
2018-06-30T01:34:44.460Z,7.57
2018-06-30T01:37:19.560Z,7.90
2018-06-30T01:39:54.716Z,7.43
2018-06-30T01:42:30.294Z,8.07
2018-06-30T01:45:05.895Z,7.87
2018-06-30T01:47:40.976Z,8.47
2018-06-30T01:50:16.013Z,6.90
2018-06-30T01:52:50.891Z,7.27
2018-06-30T01:55:25.956Z,7.60
2018-06-30T01:58:01.067Z,7.67
2018-06-30T02:00:36.292Z,7.27
2018-06-30T02:03:11.356Z,7.90
2018-06-30T02:05:46.499Z,6.43
2018-06-30T02:08:21.692Z,6.93
2018-06-30T02:10:56.640Z,7.90
2018-06-30T02:13:31.615Z,7.20
2018-06-30T02:16:06.507Z,7.17
2018-06-30T02:18:41.428Z,7.00
2018-06-30T02:21:16.534Z,6.83
2018-06-30T02:23:51.644Z,6.70
2018-06-30T02:26:26.615Z,6.60
2018-06-30T02:29:01.800Z,6.90
2018-06-30T02:31:36.928Z,6.57
2018-06-30T02:34:11.880Z,7.07
2018-06-30T02:36:47.002Z,6.80
2018-06-30T02:39:22.004Z,7.17
2018-06-30T02:41:57.127Z,7.30
2018-06-30T02:44:33.227Z,7.10
2018-06-30T02:47:08.256Z,6.77
2018-06-30T02:49:43.192Z,6.30
2018-06-30T02:52:18.274Z,6.50
2018-06-30T02:54:53.476Z,6.60
2018-06-30T02:57:28.529Z,6.63
2018-06-30T03:00:03.724Z,6.80
2018-06-30T03:02:38.875Z,6.27
2018-06-30T03:05:13.824Z,6.40
2018-06-30T03:07:48.927Z,6.13
2018-06-30T03:10:24.055Z,6.50
2018-06-30T03:12:59.024Z,6.87
2018-06-30T03:15:34.060Z,6.57
2018-06-30T03:18:09.049Z,7.40
2018-06-30T03:20:44.121Z,5.80
2018-06-30T03:23:19.076Z,6.03
2018-06-30T03:25:53.968Z,6.50
2018-06-30T03:28:29.036Z,6.00
2018-06-30T03:31:04.141Z,6.00
2018-06-30T03:33:39.146Z,5.67
2018-06-30T03:36:14.115Z,6.00
2018-06-30T03:38:49.227Z,6.07
2018-06-30T03:41:24.312Z,6.27
2018-06-30T03:43:59.284Z,6.30
2018-06-30T03:46:34.540Z,5.83
2018-06-30T03:49:09.421Z,5.60
2018-06-30T03:51:44.487Z,5.80
2018-06-30T03:54:19.458Z,5.60
2018-06-30T03:56:54.573Z,5.80
2018-06-30T03:59:29.631Z,5.67
2018-06-30T04:02:04.576Z,5.80
2018-06-30T04:04:39.542Z,5.70
2018-06-30T04:07:14.528Z,6.03
2018-06-30T04:09:49.659Z,5.43
2018-06-30T04:12:24.784Z,5.70
2018-06-30T04:14:59.885Z,5.90
2018-06-30T04:17:34.961Z,5.67
2018-06-30T04:20:09.995Z,5.20
2018-06-30T04:22:45.151Z,5.50
2018-06-30T04:25:20.100Z,5.60
2018-06-30T04:27:55.316Z,5.27
2018-06-30T04:30:30.315Z,4.77
2018-06-30T04:33:05.771Z,5.07
2018-06-30T04:35:40.825Z,5.30
2018-06-30T04:38:15.944Z,4.33
2018-06-30T04:40:51.080Z,4.63
2018-06-30T04:43:26.168Z,4.30
2018-06-30T04:46:01.272Z,4.63
2018-06-30T04:48:36.748Z,4.30
2018-06-30T04:51:11.779Z,4.10
2018-06-30T04:53:46.724Z,4.33
2018-06-30T04:56:21.828Z,3.47
2018-06-30T04:58:56.883Z,3.70
2018-06-30T05:01:31.816Z,3.47
2018-06-30T05:04:07.116Z,3.30
2018-06-30T05:06:42.044Z,3.40
2018-06-30T05:09:17.117Z,3.60
2018-06-30T05:11:52.404Z,3.23
2018-06-30T05:14:27.384Z,3.40
2018-06-30T05:17:02.388Z,2.77
2018-06-30T05:19:37.488Z,2.80
2018-06-30T05:22:12.568Z,3.27
2018-06-30T05:24:47.505Z,3.90
2018-06-30T05:27:22.633Z,2.87
2018-06-30T05:29:57.724Z,3.00
2018-06-30T05:32:32.800Z,2.80
2018-06-30T05:35:07.832Z,2.50
2018-06-30T05:37:42.837Z,2.43
2018-06-30T05:40:17.916Z,2.20
2018-06-30T05:42:53.063Z,2.30
2018-06-30T05:45:28.000Z,2.60
2018-06-30T05:48:03.029Z,2.37
2018-06-30T05:50:38.405Z,2.20
2018-06-30T05:53:13.491Z,2.13
2018-06-30T05:55:48.547Z,2.30
2018-06-30T05:58:23.661Z,2.10
2018-06-30T06:00:58.575Z,2.23
2018-06-30T06:03:33.728Z,2.00
2018-06-30T06:06:08.804Z,2.00
2018-06-30T06:08:44.925Z,2.30
2018-06-30T06:11:19.900Z,2.10
2018-06-30T06:13:55.014Z,1.80
2018-06-30T06:16:30.000Z,2.47
2018-06-30T06:19:05.718Z,1.97
2018-06-30T06:21:41.168Z,2.03
2018-06-30T06:24:16.100Z,2.07
2018-06-30T06:26:51.293Z,1.83
2018-06-30T06:29:26.303Z,2.40
2018-06-30T06:32:01.224Z,1.70
2018-06-30T06:34:36.301Z,2.07
2018-06-30T06:37:12.968Z,1.80
2018-06-30T06:39:48.076Z,1.80
2018-06-30T06:42:23.188Z,1.90
2018-06-30T06:44:58.343Z,1.57
2018-06-30T06:47:33.249Z,1.70
2018-06-30T06:50:08.468Z,1.50
2018-06-30T06:52:43.667Z,1.80
2018-06-30T06:55:18.763Z,1.73
2018-06-30T06:57:53.967Z,2.10
2018-06-30T07:00:29.074Z,1.80
2018-06-30T07:03:04.212Z,2.00
2018-06-30T07:05:39.248Z,2.20
2018-06-30T07:08:14.592Z,1.97
2018-06-30T07:10:49.583Z,1.90
2018-06-30T07:13:24.707Z,2.00
2018-06-30T07:15:59.796Z,1.80
2018-06-30T07:18:34.800Z,1.97
2018-06-30T07:21:09.760Z,1.87
2018-06-30T07:23:44.892Z,1.80
2018-06-30T07:26:20.036Z,1.60
2018-06-30T07:28:55.184Z,1.73
2018-06-30T07:31:30.328Z,2.00
2018-06-30T07:34:05.476Z,1.70
2018-06-30T07:36:40.672Z,1.70
2018-06-30T07:39:15.844Z,1.60
2018-06-30T07:41:50.691Z,1.80
2018-06-30T07:44:25.497Z,2.13
2018-06-30T07:47:00.644Z,2.17
2018-06-30T07:49:35.455Z,1.90
2018-06-30T07:52:10.381Z,1.83
2018-06-30T07:54:45.412Z,1.80
2018-06-30T07:57:20.472Z,1.97
2018-06-30T07:59:55.384Z,1.90
2018-06-30T08:02:30.364Z,1.90
2018-06-30T08:05:05.796Z,1.90
2018-06-30T08:07:40.724Z,1.93
2018-06-30T08:10:15.832Z,1.93
2018-06-30T08:12:50.992Z,1.60
2018-06-30T08:15:26.037Z,3.60
2018-06-30T08:18:00.963Z,1.47
2018-06-30T08:20:36.257Z,1.30
2018-06-30T08:23:11.205Z,1.70
2018-06-30T08:25:46.356Z,1.90
2018-06-30T08:28:21.390Z,1.27
2018-06-30T08:30:56.520Z,1.40
2018-06-30T08:33:31.659Z,1.50
2018-06-30T08:36:06.856Z,1.37
2018-06-30T08:38:41.903Z,1.30
2018-06-30T08:41:16.988Z,1.37
2018-06-30T08:43:52.071Z,1.30
2018-06-30T08:46:27.212Z,1.40
2018-06-30T08:49:02.208Z,1.30
2018-06-30T08:51:37.252Z,1.30
2018-06-30T08:54:12.338Z,1.27
2018-06-30T08:56:47.721Z,1.13
2018-06-30T09:02:29.388Z,1.20
2018-06-30T09:05:04.849Z,1.63
2018-06-30T09:07:39.783Z,1.20
2018-06-30T09:10:14.953Z,1.30
2018-06-30T09:12:50.000Z,1.40
2018-06-30T09:15:24.928Z,2.20
2018-06-30T09:17:59.880Z,1.57
2018-06-30T09:20:34.840Z,1.30
2018-06-30T09:23:09.836Z,0.97
2018-06-30T09:25:44.942Z,1.43
2018-06-30T09:28:20.052Z,1.33
2018-06-30T09:30:55.204Z,1.50
2018-06-30T09:33:30.288Z,1.70
2018-06-30T09:36:05.504Z,1.30
2018-06-30T09:38:40.516Z,1.43
2018-06-30T09:41:15.452Z,1.27
2018-06-30T09:43:50.420Z,1.30
2018-06-30T09:46:25.327Z,1.40
2018-06-30T09:49:00.521Z,1.40
2018-06-30T09:51:35.439Z,1.50
2018-06-30T09:54:10.396Z,1.60
2018-06-30T09:56:45.601Z,1.50
2018-06-30T09:59:20.639Z,1.40
2018-06-30T10:01:55.663Z,1.10
2018-06-30T10:04:30.739Z,1.30
2018-06-30T10:07:06.427Z,1.57
2018-06-30T10:09:41.367Z,1.20
2018-06-30T10:12:16.476Z,1.40
2018-06-30T10:14:51.572Z,1.20
2018-06-30T10:17:26.741Z,1.20
2018-06-30T10:20:01.755Z,1.20
2018-06-30T10:22:36.923Z,1.40
2018-06-30T10:25:11.868Z,1.50
2018-06-30T10:27:46.992Z,1.57
2018-06-30T10:30:21.919Z,1.30
2018-06-30T10:32:56.996Z,1.43
2018-06-30T10:35:31.988Z,1.10
2018-06-30T10:38:07.144Z,1.43
2018-06-30T10:40:42.075Z,1.50
2018-06-30T10:43:17.176Z,1.37
2018-06-30T10:45:53.421Z,1.10
2018-06-30T10:48:30.196Z,1.20
2018-06-30T10:51:05.248Z,1.30
2018-06-30T10:53:40.232Z,1.40
2018-06-30T10:56:15.388Z,1.10
2018-06-30T10:58:50.543Z,1.20
2018-06-30T11:01:25.672Z,1.13
2018-06-30T11:04:00.787Z,0.87
2018-06-30T11:06:35.885Z,1.40
2018-06-30T11:09:12.080Z,1.30
2018-06-30T11:11:47.040Z,0.90
2018-06-30T11:14:22.056Z,1.00
2018-06-30T11:16:57.208Z,1.20
2018-06-30T11:19:32.132Z,1.10
2018-06-30T11:22:07.198Z,0.80
2018-06-30T11:24:42.188Z,0.90
2018-06-30T11:27:17.327Z,1.00
2018-06-30T11:42:18.333Z,0.90
2018-06-30T11:44:53.489Z,1.03
2018-06-30T11:47:28.496Z,0.87
2018-06-30T11:50:03.586Z,0.87
2018-06-30T11:52:38.379Z,0.93
2018-06-30T11:55:13.236Z,0.77
2018-06-30T11:57:48.296Z,0.80
2018-06-30T12:00:23.404Z,0.93
2018-06-30T12:02:58.427Z,0.80
2018-06-30T12:05:33.368Z,1.10
2018-06-30T12:08:08.412Z,1.00
2018-06-30T12:10:43.429Z,0.70
2018-06-30T12:13:18.406Z,0.63
2018-06-30T12:15:53.460Z,1.00
2018-06-30T12:18:28.559Z,1.10
2018-06-30T12:21:03.676Z,1.00
2018-06-30T12:23:38.665Z,0.93
2018-06-30T12:26:13.728Z,1.80
2018-06-30T12:28:48.845Z,1.20
2018-06-30T12:31:23.828Z,1.10
2018-06-30T12:33:58.984Z,1.53
2018-06-30T12:36:34.088Z,0.60
2018-06-30T12:39:09.799Z,0.70
2018-06-30T12:41:44.730Z,0.70
2018-06-30T12:44:19.712Z,0.60
2018-06-30T12:46:54.737Z,0.37
2018-06-30T12:49:30.396Z,0.60
2018-06-30T12:52:05.564Z,0.67
2018-06-30T12:54:40.914Z,0.50
2018-06-30T12:57:16.316Z,0.60
2018-06-30T12:59:51.432Z,0.53
2018-06-30T13:02:26.485Z,0.37
2018-06-30T13:05:01.400Z,0.50
2018-06-30T13:07:36.547Z,0.50
2018-06-30T13:10:11.492Z,0.43
2018-06-30T13:12:46.607Z,0.70
2018-06-30T13:15:21.693Z,1.17
2018-06-30T13:17:57.547Z,0.83
2018-06-30T13:20:32.580Z,0.63
2018-06-30T13:23:07.695Z,1.37
2018-06-30T13:25:42.812Z,0.60
2018-06-30T13:28:17.781Z,0.60
2018-06-30T13:30:52.917Z,0.50
2018-06-30T13:33:28.089Z,0.70
2018-06-30T13:36:02.988Z,0.40
2018-06-30T13:38:38.194Z,0.53
2018-06-30T13:41:13.208Z,0.60
2018-06-30T13:43:48.303Z,0.60
2018-06-30T13:46:23.376Z,0.63
2018-06-30T13:48:58.548Z,0.70
2018-06-30T13:51:33.556Z,0.60
2018-06-30T13:54:08.816Z,0.50
2018-06-30T13:56:43.908Z,0.67
2018-06-30T13:59:18.901Z,0.70
2018-06-30T14:01:54.053Z,0.50
2018-06-30T14:04:29.171Z,0.50
2018-06-30T14:07:04.242Z,0.70
2018-06-30T14:09:39.292Z,0.80
2018-06-30T14:12:14.302Z,0.60
2018-06-30T14:14:49.295Z,0.77
2018-06-30T14:17:24.299Z,0.50
2018-06-30T14:19:59.780Z,0.73
2018-06-30T14:22:34.928Z,0.60
2018-06-30T14:25:10.003Z,0.80
2018-06-30T14:27:44.990Z,0.53
2018-06-30T14:30:20.123Z,0.60
2018-06-30T14:32:55.192Z,0.70
2018-06-30T14:35:30.264Z,0.70
2018-06-30T14:38:05.396Z,0.30
2018-06-30T14:40:40.372Z,0.57
2018-06-30T14:43:15.424Z,0.90
2018-06-30T14:45:50.549Z,0.60
2018-06-30T14:48:25.644Z,0.70
2018-06-30T14:51:00.585Z,0.50
2018-06-30T14:53:35.660Z,0.70
2018-06-30T14:56:10.848Z,0.50
2018-06-30T14:58:46.017Z,0.50
2018-06-30T15:01:21.131Z,0.50
2018-06-30T15:03:56.325Z,0.60
2018-06-30T15:06:31.483Z,0.50
2018-06-30T15:09:09.451Z,0.60
2018-06-30T15:11:46.048Z,0.50
2018-06-30T15:14:21.172Z,0.57
2018-06-30T15:16:56.221Z,1.07
2018-06-30T15:19:31.396Z,0.50
2018-06-30T15:22:06.676Z,0.50
2018-06-30T15:24:41.725Z,0.50
2018-06-30T15:27:16.972Z,0.40
2018-06-30T15:29:52.092Z,0.50
2018-06-30T15:32:27.160Z,0.50
2018-06-30T15:35:02.471Z,0.40
2018-06-30T15:37:37.616Z,0.57
2018-06-30T15:40:12.623Z,0.47
2018-06-30T15:42:47.779Z,0.40
2018-06-30T15:45:22.875Z,0.70
2018-06-30T15:47:57.832Z,0.70
2018-06-30T15:50:32.840Z,0.43
2018-06-30T15:53:08.064Z,0.50
2018-06-30T15:55:43.149Z,0.60
2018-06-30T15:58:18.312Z,0.60
2018-06-30T16:00:53.432Z,0.60
2018-06-30T16:03:28.730Z,0.50
2018-06-30T16:06:03.716Z,0.73
2018-06-30T16:08:39.072Z,0.60
2018-06-30T16:11:14.033Z,0.83
2018-06-30T16:13:48.969Z,0.60
2018-06-30T16:16:24.165Z,0.60
2018-06-30T16:18:59.198Z,0.53
2018-06-30T16:21:34.194Z,1.23
2018-06-30T16:24:09.204Z,0.43
2018-06-30T16:26:44.188Z,0.80
2018-06-30T16:29:19.231Z,0.80
2018-06-30T16:31:54.463Z,0.60
2018-06-30T16:34:29.541Z,0.70
2018-06-30T16:37:04.608Z,0.70
2018-06-30T16:39:39.735Z,0.50
2018-06-30T16:42:14.872Z,0.40
2018-06-30T16:44:49.823Z,1.20
2018-06-30T16:47:24.865Z,0.60
2018-06-30T16:49:59.919Z,0.47
2018-06-30T16:52:35.072Z,0.70
2018-06-30T16:55:10.053Z,0.60
2018-06-30T16:57:45.197Z,0.50
2018-06-30T17:00:20.483Z,0.60
2018-06-30T17:02:55.440Z,0.40
2018-06-30T17:05:30.497Z,0.40
2018-06-30T17:08:05.748Z,0.40
2018-06-30T17:10:40.760Z,1.00
2018-06-30T17:13:15.892Z,0.80
2018-06-30T17:15:50.992Z,0.60
2018-06-30T17:18:26.143Z,0.60
2018-06-30T17:21:01.190Z,0.70
2018-06-30T17:23:36.353Z,0.50
2018-06-30T17:26:11.572Z,0.60
2018-06-30T17:28:46.432Z,0.70
2018-06-30T17:31:21.461Z,2.40
2018-06-30T17:33:56.636Z,1.67
2018-06-30T17:36:31.766Z,1.40
2018-06-30T17:39:08.409Z,0.87
2018-06-30T17:41:43.330Z,0.40
2018-06-30T17:44:18.352Z,0.70
2018-06-30T17:46:53.432Z,0.73
2018-06-30T17:49:28.432Z,0.50
2018-06-30T17:52:03.591Z,0.70
2018-06-30T17:54:38.720Z,0.33
2018-06-30T17:57:13.830Z,0.50
2018-06-30T17:59:48.823Z,0.80
2018-06-30T18:02:23.820Z,0.70
2018-06-30T18:04:58.992Z,0.93
2018-06-30T18:07:34.048Z,0.70
2018-06-30T18:10:09.196Z,0.40
2018-06-30T18:12:43.871Z,0.40
2018-06-30T18:15:18.685Z,0.47
2018-06-30T18:17:53.638Z,0.50
2018-06-30T18:20:28.609Z,0.50
2018-06-30T18:23:03.841Z,0.67
2018-06-30T18:25:38.792Z,0.47
2018-06-30T18:28:13.731Z,0.63
2018-06-30T18:30:48.875Z,0.50
2018-06-30T18:33:23.927Z,0.80
2018-06-30T18:35:58.872Z,0.50
2018-06-30T18:38:33.967Z,0.80
2018-06-30T18:41:09.048Z,0.67
2018-06-30T18:43:44.237Z,0.50
2018-06-30T18:46:19.213Z,0.50
2018-06-30T18:48:54.280Z,0.60
2018-06-30T18:51:29.296Z,0.57
2018-06-30T18:54:05.986Z,0.60
2018-06-30T18:56:40.891Z,0.60
2018-06-30T18:59:16.035Z,0.60
2018-06-30T19:01:51.073Z,0.63
2018-06-30T19:04:26.124Z,0.63
2018-06-30T19:07:01.242Z,0.60
2018-06-30T19:09:36.366Z,0.50
2018-06-30T19:12:11.335Z,0.93
2018-06-30T19:14:46.660Z,0.80
2018-06-30T19:17:21.767Z,0.57
2018-06-30T19:19:56.748Z,0.90
2018-06-30T19:22:31.856Z,2.67
2018-06-30T19:25:06.923Z,1.20
2018-06-30T19:27:41.895Z,1.23
2018-06-30T19:30:16.957Z,1.50
2018-06-30T19:32:52.033Z,1.47
2018-06-30T19:35:27.105Z,2.43
2018-06-30T19:38:02.054Z,3.00
2018-06-30T19:40:37.112Z,2.60
2018-06-30T19:43:12.180Z,2.67
2018-06-30T19:45:47.204Z,2.43
2018-06-30T19:48:22.275Z,2.43
2018-06-30T19:50:57.404Z,2.10
2018-06-30T19:53:32.578Z,1.70
2018-06-30T19:56:07.734Z,1.50
2018-06-30T19:58:42.775Z,1.80
2018-06-30T20:01:17.828Z,1.67
2018-06-30T20:03:52.996Z,1.40
2018-06-30T20:06:28.102Z,1.47
2018-06-30T20:09:03.691Z,1.70
2018-06-30T20:11:38.804Z,1.30
2018-06-30T20:14:13.902Z,1.40
2018-06-30T20:16:48.903Z,1.50
2018-06-30T20:19:24.011Z,1.27
2018-06-30T20:21:58.992Z,1.20
2018-06-30T20:24:34.144Z,1.27
2018-06-30T20:27:09.338Z,1.30
2018-06-30T20:29:45.356Z,1.30
2018-06-30T20:32:21.223Z,1.20
2018-06-30T20:34:56.375Z,1.20
2018-06-30T20:37:31.416Z,1.20
2018-06-30T20:40:06.670Z,1.00
2018-06-30T20:42:41.653Z,1.00
2018-06-30T20:45:16.821Z,1.00
2018-06-30T20:47:51.805Z,1.10
2018-06-30T20:50:26.783Z,1.00
2018-06-30T20:53:01.960Z,0.77
2018-06-30T20:55:37.027Z,0.87
2018-06-30T20:58:12.072Z,0.70
2018-06-30T21:00:47.344Z,1.27
2018-06-30T21:03:22.521Z,1.00
2018-06-30T21:05:57.764Z,1.10
2018-06-30T21:08:32.922Z,0.90
2018-06-30T21:11:07.776Z,1.00
2018-06-30T21:13:43.376Z,0.70
2018-06-30T21:16:18.407Z,1.03
2018-06-30T21:18:53.728Z,0.90
2018-06-30T21:21:28.731Z,0.90
2018-06-30T21:24:03.850Z,0.70
2018-06-30T21:26:38.904Z,0.87
2018-06-30T21:29:14.052Z,1.07
2018-06-30T21:31:49.208Z,0.80
2018-06-30T21:34:24.308Z,0.80
2018-06-30T21:36:59.569Z,0.70
2018-06-30T21:39:34.592Z,0.70
2018-06-30T21:42:09.706Z,0.70
2018-06-30T21:44:44.804Z,1.27
2018-06-30T21:47:19.913Z,0.83
2018-06-30T21:49:55.044Z,0.70
2018-06-30T21:52:30.131Z,0.90
2018-06-30T21:55:05.209Z,0.80
2018-06-30T21:57:40.336Z,0.80
2018-06-30T22:00:17.496Z,0.97
2018-06-30T22:02:52.481Z,0.80
2018-06-30T22:05:27.581Z,1.10
2018-06-30T22:08:02.555Z,0.97
2018-06-30T22:10:37.706Z,0.80
2018-06-30T22:13:12.819Z,1.00
2018-06-30T22:15:48.268Z,0.80
2018-06-30T22:18:23.281Z,0.83
2018-06-30T22:20:58.363Z,1.10
2018-06-30T22:23:33.360Z,1.13
2018-06-30T22:26:08.314Z,0.77
2018-06-30T22:28:43.372Z,0.97
2018-06-30T22:31:18.348Z,1.00
2018-06-30T22:33:53.608Z,0.90
2018-06-30T22:36:28.535Z,0.90
2018-06-30T22:39:06.252Z,0.90
2018-06-30T22:41:41.212Z,0.90
2018-06-30T22:44:16.407Z,0.93
2018-06-30T22:46:51.543Z,1.00
2018-06-30T22:49:26.623Z,1.13
2018-06-30T22:52:01.621Z,0.90
2018-06-30T22:54:36.768Z,0.97
2018-06-30T22:57:11.702Z,0.80
2018-06-30T22:59:46.711Z,0.80
2018-06-30T23:02:21.960Z,0.93
2018-06-30T23:04:56.941Z,0.90
2018-06-30T23:07:32.050Z,0.97
2018-06-30T23:10:07.160Z,0.77
2018-06-30T23:12:42.717Z,0.87
2018-06-30T23:15:17.744Z,1.43
2018-06-30T23:17:52.680Z,0.80
2018-06-30T23:20:27.622Z,1.17
2018-06-30T23:23:03.824Z,0.90
2018-06-30T23:25:39.832Z,0.93
2018-06-30T23:28:15.024Z,0.83
2018-06-30T23:30:50.120Z,0.97
2018-06-30T23:33:25.105Z,0.80
2018-06-30T23:35:59.916Z,0.87
2018-06-30T23:38:34.949Z,1.00
2018-06-30T23:41:09.936Z,1.00
2018-06-30T23:43:45.016Z,0.80
2018-06-30T23:46:20.140Z,0.80
2018-06-30T23:48:55.180Z,1.00
2018-06-30T23:51:30.327Z,1.10
2018-06-30T23:54:05.689Z,1.07
2018-06-30T23:56:40.680Z,1.10
2018-06-30T23:59:15.739Z,0.80
